createdAt,value
2023-04-29T00:00:46.162Z,4.35
2023-04-29T00:03:13.126Z,4.70
2023-04-29T00:05:40.459Z,3.90
2023-04-29T00:08:08.738Z,8.68
2023-04-29T00:10:35.633Z,5.97
2023-04-29T00:13:02.469Z,8.15
2023-04-29T00:15:29.453Z,5.55
2023-04-29T00:17:56.337Z,9.52
2023-04-29T00:20:23.233Z,7.60
2023-04-29T00:22:50.061Z,7.03
2023-04-29T00:25:17.062Z,10.15
2023-04-29T00:27:43.895Z,5.03
2023-04-29T00:30:11.373Z,6.40
2023-04-29T00:32:38.266Z,6.32
2023-04-29T00:35:05.679Z,6.03
2023-04-29T00:37:33.012Z,4.30
2023-04-29T00:39:59.928Z,4.78
2023-04-29T00:42:28.065Z,7.45
2023-04-29T00:44:55.864Z,5.75
2023-04-29T00:47:23.280Z,5.45
2023-04-29T00:49:50.795Z,5.80
2023-04-29T00:52:19.047Z,6.85
2023-04-29T00:54:45.984Z,8.80
2023-04-29T00:57:13.464Z,2.88
2023-04-29T00:59:41.065Z,4.10
2023-04-29T01:02:07.955Z,9.48
2023-04-29T01:04:35.106Z,5.20
2023-04-29T01:07:18.443Z,9.50
2023-04-29T01:10:07.226Z,2.50
2023-04-29T01:12:45.601Z,8.13
2023-04-29T01:15:25.397Z,4.13
2023-04-29T01:18:06.058Z,3.95
2023-04-29T01:20:34.228Z,4.03
2023-04-29T01:23:01.212Z,5.90
2023-04-29T01:25:28.884Z,6.25
2023-04-29T01:28:43.325Z,3.60
2023-04-29T01:31:36.769Z,3.15
2023-04-29T01:34:22.159Z,3.47
2023-04-29T01:37:04.494Z,3.47
2023-04-29T01:40:00.784Z,4.57
2023-04-29T01:42:43.333Z,6.90
2023-04-29T01:45:17.288Z,6.78
2023-04-29T01:47:46.519Z,6.50
2023-04-29T01:50:14.115Z,5.00
2023-04-29T01:52:41.311Z,8.65
2023-04-29T01:55:09.602Z,3.40
2023-04-29T01:57:47.574Z,12.90
2023-04-29T02:00:27.563Z,5.88
2023-04-29T02:02:54.978Z,6.78
2023-04-29T02:05:33.889Z,5.47
2023-04-29T02:08:01.891Z,5.57
2023-04-29T02:10:29.927Z,6.15
2023-04-29T02:15:39.512Z,8.18
2023-04-29T02:18:06.311Z,9.23
2023-04-29T02:20:33.260Z,3.95
2023-04-29T02:23:00.205Z,6.85
2023-04-29T02:25:27.073Z,5.03
2023-04-29T02:27:54.007Z,9.65
2023-04-29T02:30:21.328Z,6.68
2023-04-29T02:32:48.153Z,6.82
2023-04-29T02:35:15.105Z,10.95
2023-04-29T02:37:41.940Z,9.38
2023-04-29T02:40:09.398Z,6.22
2023-04-29T02:42:36.222Z,11.57
2023-04-29T02:45:03.964Z,8.27
2023-04-29T02:47:30.905Z,6.38
2023-04-29T02:49:57.788Z,4.50
2023-04-29T02:52:24.549Z,4.82
2023-04-29T02:54:51.416Z,4.68
2023-04-29T02:57:18.567Z,6.68
2023-04-29T02:59:45.469Z,7.90
2023-04-29T03:02:12.765Z,8.10
2023-04-29T03:04:40.263Z,8.02
2023-04-29T03:07:08.080Z,5.03
2023-04-29T03:09:35.765Z,13.65
2023-04-29T03:12:03.060Z,7.22
2023-04-29T03:14:30.551Z,6.50
2023-04-29T03:16:58.718Z,9.75
2023-04-29T03:19:25.851Z,6.55
2023-04-29T03:21:53.995Z,5.03
2023-04-29T03:24:22.130Z,8.32
2023-04-29T03:26:49.053Z,7.65
2023-04-29T03:29:15.932Z,12.40
2023-04-29T03:31:43.005Z,4.72
2023-04-29T03:34:10.586Z,6.38
2023-04-29T03:36:41.284Z,8.73
2023-04-29T03:39:08.468Z,4.40
2023-04-29T03:41:36.249Z,5.97
2023-04-29T03:44:03.131Z,7.47
2023-04-29T03:46:30.337Z,4.90
2023-04-29T03:48:57.881Z,7.55
2023-04-29T03:51:25.452Z,9.30
2023-04-29T03:53:57.997Z,6.20
2023-04-29T03:56:25.786Z,5.95
2023-04-29T03:58:53.281Z,6.28
2023-04-29T04:01:22.010Z,4.82
2023-04-29T04:03:49.192Z,12.32
2023-04-29T04:06:16.701Z,7.95
2023-04-29T04:08:43.961Z,8.27
2023-04-29T04:11:17.678Z,8.70
2023-04-29T04:13:49.960Z,11.45
2023-04-29T04:16:17.377Z,7.28
2023-04-29T04:18:44.150Z,7.65
2023-04-29T04:21:12.223Z,5.38
2023-04-29T04:23:42.490Z,7.78
2023-04-29T04:26:11.937Z,5.38
2023-04-29T04:29:01.244Z,8.45
2023-04-29T04:31:34.643Z,4.50
2023-04-29T04:34:01.606Z,4.90
2023-04-29T04:36:32.737Z,7.43
2023-04-29T04:38:59.794Z,3.78
2023-04-29T04:41:26.699Z,5.60
2023-04-29T04:43:54.010Z,6.55
2023-04-29T04:46:30.057Z,10.13
2023-04-29T04:49:04.289Z,6.07
2023-04-29T04:51:33.574Z,3.80
2023-04-29T04:54:00.563Z,5.57
2023-04-29T04:56:29.570Z,3.50
2023-04-29T04:58:56.555Z,9.77
2023-04-29T05:01:23.418Z,11.70
2023-04-29T05:03:50.510Z,3.22
2023-04-29T05:06:17.665Z,6.78
2023-04-29T05:08:47.071Z,7.43
2023-04-29T05:11:22.244Z,2.55
2023-04-29T05:14:05.123Z,2.80
2023-04-29T05:16:32.087Z,5.47
2023-04-29T05:18:59.021Z,2.55
2023-04-29T05:21:31.627Z,4.65
2023-04-29T05:23:59.077Z,4.65
2023-04-29T05:26:26.688Z,5.15
2023-04-29T05:28:56.929Z,5.20
2023-04-29T05:31:24.517Z,8.85
2023-04-29T05:33:51.452Z,3.90
2023-04-29T05:36:18.224Z,3.10
2023-04-29T05:38:45.487Z,8.20
2023-04-29T05:41:14.148Z,3.65
2023-04-29T05:43:45.801Z,5.63
2023-04-29T05:46:14.486Z,4.75
2023-04-29T05:48:41.359Z,5.05
2023-04-29T05:51:09.881Z,5.03
2023-04-29T05:53:38.340Z,3.78
2023-04-29T05:56:08.235Z,3.47
2023-04-29T05:58:36.134Z,4.40
2023-04-29T06:01:03.295Z,4.35
2023-04-29T06:03:31.545Z,4.07
2023-04-29T06:06:17.807Z,4.88
2023-04-29T06:09:01.388Z,4.97
2023-04-29T06:11:30.265Z,2.33
2023-04-29T06:13:57.518Z,3.70
2023-04-29T06:16:24.494Z,4.75
2023-04-29T06:18:52.207Z,3.72
2023-04-29T06:21:19.020Z,4.97
2023-04-29T06:23:46.235Z,3.78
2023-04-29T06:26:17.491Z,1.75
2023-04-29T06:28:44.889Z,4.72
2023-04-29T06:31:12.661Z,5.25
2023-04-29T06:33:39.954Z,4.20
2023-04-29T06:36:06.827Z,5.47
2023-04-29T06:38:59.916Z,5.78
2023-04-29T06:41:27.345Z,3.05
2023-04-29T06:44:23.133Z,2.78
2023-04-29T06:47:21.464Z,2.53
2023-04-29T06:49:55.425Z,3.15
2023-04-29T06:52:22.497Z,3.97
2023-04-29T06:54:49.351Z,3.80
2023-04-29T06:57:18.520Z,3.17
2023-04-29T06:59:46.353Z,2.50
2023-04-29T07:02:13.732Z,2.75
2023-04-29T07:04:41.046Z,2.75
2023-04-29T07:07:07.956Z,6.72
2023-04-29T07:09:34.750Z,3.28
2023-04-29T07:12:02.750Z,2.13
2023-04-29T07:14:29.734Z,4.00
2023-04-29T07:16:56.671Z,2.92
2023-04-29T07:19:23.736Z,2.78
2023-04-29T07:21:50.523Z,1.67
2023-04-29T07:24:17.362Z,2.45
2023-04-29T07:26:46.872Z,1.90
2023-04-29T07:29:16.217Z,3.33
2023-04-29T07:31:43.013Z,2.28
2023-04-29T07:34:10.022Z,1.48
2023-04-29T07:36:36.837Z,2.22
2023-04-29T07:39:03.856Z,2.15
2023-04-29T07:41:31.699Z,1.85
2023-04-29T07:43:58.958Z,2.70
2023-04-29T07:46:25.785Z,4.10
2023-04-29T07:48:53.156Z,3.47
2023-04-29T07:51:20.149Z,2.50
2023-04-29T07:53:46.974Z,0.98
2023-04-29T07:56:13.819Z,2.95
2023-04-29T07:58:40.916Z,2.35
2023-04-29T08:01:12.301Z,2.97
2023-04-29T08:03:41.781Z,2.30
2023-04-29T08:06:09.756Z,2.03
2023-04-29T08:08:36.754Z,2.17
2023-04-29T08:11:03.928Z,4.13
2023-04-29T08:13:30.893Z,3.75
2023-04-29T08:15:57.780Z,4.22
2023-04-29T08:18:24.681Z,3.03
2023-04-29T08:20:51.624Z,2.90
2023-04-29T08:23:18.489Z,3.95
2023-04-29T08:25:46.089Z,2.38
2023-04-29T08:28:13.234Z,4.03
2023-04-29T08:30:41.583Z,3.75
2023-04-29T08:33:09.199Z,4.50
2023-04-29T08:35:39.124Z,5.03
2023-04-29T08:38:06.905Z,1.65
2023-04-29T08:40:51.907Z,4.10
2023-04-29T08:43:20.464Z,4.35
2023-04-29T08:45:48.741Z,4.28
2023-04-29T08:48:19.853Z,2.45
2023-04-29T08:50:46.886Z,2.25
2023-04-29T08:53:14.696Z,3.67
2023-04-29T08:55:48.263Z,5.90
2023-04-29T08:58:16.380Z,3.10
2023-04-29T09:00:44.943Z,8.38
2023-04-29T09:03:17.034Z,7.75
2023-04-29T09:05:49.183Z,3.47
2023-04-29T09:08:17.065Z,5.00
2023-04-29T09:10:43.866Z,2.53
2023-04-29T09:13:26.996Z,2.92
2023-04-29T09:15:54.480Z,4.53
2023-04-29T09:18:50.458Z,6.47
2023-04-29T09:21:23.042Z,2.88
2023-04-29T09:23:58.511Z,4.00
2023-04-29T09:26:26.071Z,4.03
2023-04-29T09:29:16.161Z,2.85
2023-04-29T09:31:43.271Z,3.75
2023-04-29T09:34:14.260Z,2.95
2023-04-29T09:36:46.803Z,2.72
2023-04-29T09:39:16.278Z,3.92
2023-04-29T09:41:55.427Z,3.73
2023-04-29T09:44:23.449Z,2.70
2023-04-29T09:47:04.124Z,4.82
2023-04-29T09:49:41.072Z,5.88
2023-04-29T09:52:18.339Z,4.03
2023-04-29T09:54:46.181Z,4.47
2023-04-29T09:57:16.674Z,5.30
2023-04-29T10:02:20.956Z,3.83
2023-04-29T10:04:54.868Z,4.20
2023-04-29T10:07:22.726Z,3.03
2023-04-29T10:09:50.554Z,2.10
2023-04-29T10:12:20.527Z,6.93
2023-04-29T10:14:59.508Z,4.90
2023-04-29T10:17:42.430Z,7.07
2023-04-29T10:20:13.944Z,4.35
2023-04-29T10:22:47.231Z,4.43
2023-04-29T10:25:18.699Z,6.68
2023-04-29T10:27:46.601Z,3.90
2023-04-29T10:30:18.480Z,4.15
2023-04-29T10:32:51.631Z,4.05
2023-04-29T10:35:22.272Z,8.40
2023-04-29T10:37:49.867Z,3.35
2023-04-29T10:40:28.024Z,3.17
2023-04-29T10:42:55.704Z,7.40
2023-04-29T10:45:27.477Z,4.35
2023-04-29T10:48:05.654Z,5.53
2023-04-29T10:50:34.052Z,3.95
2023-04-29T10:53:05.427Z,5.50
2023-04-29T10:55:35.868Z,5.78
2023-04-29T11:00:34.860Z,4.05
2023-04-29T11:03:05.691Z,3.30
2023-04-29T11:05:37.119Z,3.50
2023-04-29T11:08:12.653Z,5.20
2023-04-29T11:10:43.850Z,3.05
2023-04-29T11:13:26.985Z,3.47
2023-04-29T11:16:04.161Z,3.85
2023-04-29T11:18:31.410Z,3.97
2023-04-29T11:21:08.698Z,5.00
2023-04-29T11:23:36.479Z,4.47
2023-04-29T11:26:04.248Z,5.50
2023-04-29T11:28:32.454Z,5.32
2023-04-29T11:30:59.936Z,5.88
2023-04-29T11:33:28.098Z,4.78
2023-04-29T11:35:55.590Z,6.43
2023-04-29T11:38:26.490Z,6.38
2023-04-29T11:40:55.590Z,7.53
2023-04-29T11:43:23.765Z,10.65
2023-04-29T11:45:51.727Z,7.18
2023-04-29T11:48:23.281Z,6.75
2023-04-29T11:50:52.374Z,5.03
2023-04-29T11:53:25.168Z,8.73
2023-04-29T11:55:55.933Z,5.18
2023-04-29T11:58:23.768Z,5.00
2023-04-29T12:00:51.955Z,7.88
2023-04-29T12:03:20.769Z,12.43
2023-04-29T12:05:48.783Z,8.10
2023-04-29T12:08:15.685Z,11.88
2023-04-29T12:10:42.579Z,12.15
2023-04-29T12:13:10.397Z,11.90
2023-04-29T12:15:40.092Z,15.00
2023-04-29T12:18:08.387Z,9.30
2023-04-29T12:20:35.646Z,9.55
2023-04-29T12:23:23.094Z,10.32
2023-04-29T12:25:55.017Z,8.25
2023-04-29T12:28:22.159Z,6.40
2023-04-29T12:30:50.415Z,8.00
2023-04-29T12:33:28.689Z,6.20
2023-04-29T12:35:57.546Z,5.55
2023-04-29T12:38:31.187Z,6.70
2023-04-29T12:41:05.510Z,6.95
2023-04-29T12:43:36.075Z,9.85
2023-04-29T12:46:04.925Z,8.45
2023-04-29T12:48:41.503Z,6.47
2023-04-29T12:51:10.489Z,8.10
2023-04-29T12:53:37.786Z,6.82
2023-04-29T12:56:06.032Z,7.43
2023-04-29T12:58:34.846Z,7.25
2023-04-29T13:01:01.802Z,7.50
2023-04-29T13:03:29.002Z,7.93
2023-04-29T13:05:56.106Z,8.45
2023-04-29T13:08:23.150Z,9.50
2023-04-29T13:10:50.198Z,14.40
2023-04-29T13:13:17.049Z,15.27
2023-04-29T13:15:44.176Z,7.75
2023-04-29T13:18:11.032Z,9.38
2023-04-29T13:20:41.419Z,9.73
2023-04-29T13:23:09.620Z,9.55
2023-04-29T13:25:36.456Z,7.30
2023-04-29T13:28:05.223Z,9.27
2023-04-29T13:30:32.161Z,13.80
2023-04-29T13:33:04.991Z,15.93
2023-04-29T13:35:40.060Z,9.88
2023-04-29T13:38:07.594Z,12.73
2023-04-29T13:40:38.801Z,12.00
2023-04-29T13:43:09.836Z,11.05
2023-04-29T13:45:42.419Z,14.90
2023-04-29T13:48:20.750Z,14.80
2023-04-29T13:56:46.423Z,12.65
2023-04-29T13:59:28.769Z,11.60
2023-04-29T14:02:13.245Z,13.80
2023-04-29T14:04:14.698Z,11.43
2023-04-29T14:06:43.894Z,13.35
2023-04-29T14:09:10.780Z,11.57
2023-04-29T14:11:37.685Z,9.13
2023-04-29T14:14:04.548Z,9.88
2023-04-29T14:16:32.288Z,15.45
2023-04-29T14:19:01.243Z,14.75
2023-04-29T14:23:57.536Z,12.43
2023-04-29T14:26:28.403Z,10.57
2023-04-29T14:28:59.827Z,12.15
2023-04-29T14:31:29.211Z,12.13
2023-04-29T14:33:57.360Z,15.45
2023-04-29T14:36:25.019Z,13.23
2023-04-29T14:38:52.451Z,11.07
2023-04-29T14:41:21.332Z,10.32
2023-04-29T14:43:48.182Z,11.10
2023-04-29T14:46:15.107Z,12.38
2023-04-29T14:48:41.966Z,8.73
2023-04-29T14:51:08.965Z,11.45
2023-04-29T14:53:35.888Z,10.23
2023-04-29T14:56:03.713Z,10.57
2023-04-29T14:58:30.901Z,10.43
2023-04-29T15:00:57.754Z,11.15
2023-04-29T15:03:24.720Z,10.68
2023-04-29T15:05:51.936Z,10.65
2023-04-29T15:08:19.473Z,10.32
2023-04-29T15:10:47.646Z,10.35
2023-04-29T15:13:14.988Z,10.05
2023-04-29T15:15:41.964Z,10.88
2023-04-29T15:18:09.180Z,13.10
2023-04-29T15:20:37.022Z,11.32
2023-04-29T15:23:05.740Z,9.07
2023-04-29T15:25:34.681Z,13.55
2023-04-29T15:28:03.908Z,8.68
2023-04-29T15:30:30.930Z,13.40
2023-04-29T15:32:57.978Z,13.48
2023-04-29T15:35:24.934Z,10.68
2023-04-29T15:37:51.731Z,8.35
2023-04-29T15:40:18.584Z,10.43
2023-04-29T15:42:45.456Z,14.32
2023-04-29T15:45:12.519Z,10.52
2023-04-29T15:47:39.431Z,12.23
2023-04-29T15:50:10.441Z,18.42
2023-04-29T15:52:37.246Z,10.90
2023-04-29T15:55:05.304Z,11.20
2023-04-29T15:57:32.387Z,9.73
2023-04-29T15:59:59.179Z,13.00
2023-04-29T16:02:26.076Z,12.82
2023-04-29T16:04:52.989Z,10.68
2023-04-29T16:07:19.793Z,15.68
2023-04-29T16:09:46.662Z,11.15
2023-04-29T16:12:14.097Z,14.88
2023-04-29T16:14:41.105Z,12.48
2023-04-29T16:17:08.038Z,14.10
2023-04-29T16:19:36.797Z,11.07
2023-04-29T16:22:04.483Z,13.50
2023-04-29T16:24:31.363Z,15.93
2023-04-29T16:26:58.948Z,15.48
2023-04-29T16:29:26.067Z,16.00
2023-04-29T16:31:53.090Z,18.17
2023-04-29T16:34:20.163Z,12.43
2023-04-29T16:36:47.117Z,14.40
2023-04-29T16:39:14.071Z,11.05
2023-04-29T16:41:41.143Z,16.90
2023-04-29T16:44:08.314Z,16.02
2023-04-29T16:46:35.410Z,19.13
2023-04-29T16:49:03.000Z,14.27
2023-04-29T16:51:29.867Z,12.05
2023-04-29T16:53:56.727Z,16.63
2023-04-29T16:56:23.671Z,18.67
2023-04-29T16:58:50.502Z,16.88
2023-04-29T17:01:19.763Z,9.93
2023-04-29T17:03:47.910Z,12.35
2023-04-29T17:06:16.102Z,12.13
2023-04-29T17:08:44.518Z,11.95
2023-04-29T17:11:11.520Z,16.27
2023-04-29T17:13:38.422Z,10.85
2023-04-29T17:16:06.337Z,11.52
2023-04-29T17:18:33.217Z,25.05
2023-04-29T17:21:00.022Z,14.48
2023-04-29T17:23:27.542Z,12.13
2023-04-29T17:25:55.468Z,12.13
2023-04-29T17:28:23.302Z,10.07
2023-04-29T17:30:50.418Z,15.95
2023-04-29T17:33:17.630Z,9.95
2023-04-29T17:35:45.334Z,13.25
2023-04-29T17:38:12.353Z,14.20
2023-04-29T17:40:39.360Z,11.05
2023-04-29T17:43:06.280Z,12.43
2023-04-29T17:45:33.318Z,12.27
2023-04-29T17:48:00.723Z,11.18
2023-04-29T17:50:27.828Z,14.57
2023-04-29T17:52:54.654Z,11.75
2023-04-29T17:55:21.700Z,12.18
2023-04-29T17:57:48.629Z,15.15
2023-04-29T18:00:15.810Z,12.25
2023-04-29T18:02:42.724Z,15.05
2023-04-29T18:05:09.818Z,11.68
2023-04-29T18:07:36.616Z,25.10
2023-04-29T18:10:04.845Z,11.55
2023-04-29T18:12:31.790Z,17.80
2023-04-29T18:14:58.579Z,12.00
2023-04-29T18:17:26.266Z,10.65
2023-04-29T18:19:53.405Z,10.10
2023-04-29T18:22:20.597Z,14.10
2023-04-29T18:24:48.414Z,14.23
2023-04-29T18:27:15.256Z,17.85
2023-04-29T18:29:42.032Z,12.48
2023-04-29T18:32:09.034Z,11.75
2023-04-29T18:34:35.966Z,11.73
2023-04-29T18:37:02.762Z,19.50
2023-04-29T18:39:29.665Z,10.55
2023-04-29T18:41:56.569Z,12.48
2023-04-29T18:44:23.682Z,10.98
2023-04-29T18:46:50.902Z,9.30
2023-04-29T18:49:18.117Z,10.45
2023-04-29T18:51:48.519Z,9.80
2023-04-29T18:54:17.597Z,17.23
2023-04-29T18:56:46.807Z,6.13
2023-04-29T18:59:19.079Z,7.97
2023-04-29T19:01:47.534Z,9.38
2023-04-29T19:04:15.141Z,10.35
2023-04-29T19:06:42.637Z,8.48
2023-04-29T19:09:11.166Z,8.20
2023-04-29T19:11:38.103Z,6.97
2023-04-29T19:14:04.995Z,7.18
2023-04-29T19:16:32.149Z,8.00
2023-04-29T19:18:59.783Z,5.30
2023-04-29T19:21:27.171Z,5.78
2023-04-29T19:23:54.052Z,5.47
2023-04-29T19:26:20.952Z,5.25
2023-04-29T19:28:47.742Z,5.32
2023-04-29T19:31:14.625Z,3.28
2023-04-29T19:33:41.675Z,6.40
2023-04-29T19:36:08.586Z,3.10
2023-04-29T19:38:35.426Z,5.00
2023-04-29T19:41:02.260Z,4.75
2023-04-29T19:43:29.091Z,5.63
2023-04-29T19:45:55.935Z,3.55
2023-04-29T19:48:22.857Z,6.43
2023-04-29T19:50:49.709Z,3.45
2023-04-29T19:53:16.941Z,5.65
2023-04-29T19:55:44.300Z,4.75
2023-04-29T19:58:11.289Z,4.50
2023-04-29T20:00:38.195Z,4.20
2023-04-29T20:03:05.096Z,8.07
2023-04-29T20:05:32.002Z,3.90
2023-04-29T20:07:58.871Z,7.18
2023-04-29T20:10:28.105Z,6.00
2023-04-29T20:12:56.811Z,5.95
2023-04-29T20:15:23.586Z,10.60
2023-04-29T20:17:50.839Z,5.22
2023-04-29T20:20:17.845Z,5.15
2023-04-29T20:22:44.678Z,5.65
2023-04-29T20:25:11.571Z,2.05
2023-04-29T20:27:38.572Z,2.72
2023-04-29T20:30:06.095Z,5.80
2023-04-29T20:32:32.875Z,2.40
2023-04-29T20:34:59.701Z,4.00
2023-04-29T20:37:26.652Z,5.22
2023-04-29T20:39:53.590Z,6.05
2023-04-29T20:42:20.648Z,3.03
2023-04-29T20:44:47.504Z,2.45
2023-04-29T20:47:14.452Z,6.60
2023-04-29T20:49:41.341Z,5.40
2023-04-29T20:52:08.139Z,5.93
2023-04-29T20:54:35.191Z,3.15
2023-04-29T20:57:05.428Z,2.58
2023-04-29T20:59:33.723Z,3.00
2023-04-29T21:02:00.784Z,2.22
2023-04-29T21:04:27.870Z,2.88
2023-04-29T21:06:54.722Z,5.95
2023-04-29T21:09:22.005Z,4.10
2023-04-29T21:11:48.875Z,2.88
2023-04-29T21:14:15.721Z,2.97
2023-04-29T21:16:42.818Z,3.55
2023-04-29T21:19:09.955Z,5.22
2023-04-29T21:21:36.739Z,3.42
2023-04-29T21:24:03.769Z,3.22
2023-04-29T21:26:30.865Z,4.28
2023-04-29T21:28:57.634Z,3.63
2023-04-29T21:31:24.466Z,2.72
2023-04-29T21:33:51.511Z,4.20
2023-04-29T21:36:18.331Z,4.85
2023-04-29T21:38:45.218Z,3.78
2023-04-29T21:41:23.126Z,1.83
2023-04-29T21:43:50.986Z,7.68
2023-04-29T21:46:18.484Z,4.35
2023-04-29T21:48:46.005Z,3.13
2023-04-29T21:51:13.028Z,2.03
2023-04-29T21:53:40.286Z,3.33
2023-04-29T21:56:07.449Z,3.30
2023-04-29T21:58:34.470Z,4.38
2023-04-29T22:01:03.508Z,1.67
2023-04-29T22:03:30.551Z,3.13
2023-04-29T22:05:57.961Z,1.58
2023-04-29T22:08:24.819Z,4.82
2023-04-29T22:10:52.955Z,1.88
2023-04-29T22:13:19.797Z,1.70
2023-04-29T22:15:46.589Z,1.30
2023-04-29T22:18:13.402Z,3.00
2023-04-29T22:20:40.302Z,2.45
2023-04-29T22:23:07.168Z,1.25
2023-04-29T22:25:34.061Z,3.92
2023-04-29T22:28:00.929Z,1.35
2023-04-29T22:30:27.811Z,5.07
2023-04-29T22:32:55.135Z,0.77
2023-04-29T22:35:22.191Z,3.42
2023-04-29T22:37:49.034Z,4.30
2023-04-29T22:40:15.899Z,1.50
2023-04-29T22:42:43.029Z,2.25
2023-04-29T22:45:11.330Z,1.35
2023-04-29T22:47:38.436Z,2.92
2023-04-29T22:50:06.113Z,2.30
2023-04-29T22:52:32.933Z,8.70
2023-04-29T22:55:00.005Z,2.22
2023-04-29T22:57:26.974Z,3.03
2023-04-29T22:59:57.453Z,3.10
2023-04-29T23:02:27.647Z,0.47
2023-04-29T23:04:59.069Z,1.27
2023-04-29T23:07:26.290Z,2.30
2023-04-29T23:09:53.356Z,0.55
2023-04-29T23:12:20.789Z,2.47
2023-04-29T23:14:47.612Z,0.43
2023-04-29T23:17:14.410Z,1.25
2023-04-29T23:19:41.163Z,2.28
2023-04-29T23:22:08.003Z,0.85
2023-04-29T23:24:35.599Z,1.23
2023-04-29T23:27:05.450Z,1.45
2023-04-29T23:29:35.312Z,3.38
2023-04-29T23:32:02.134Z,0.95
2023-04-29T23:34:29.036Z,2.90
2023-04-29T23:36:55.968Z,1.60
2023-04-29T23:39:22.861Z,5.32
2023-04-29T23:41:49.853Z,1.58
2023-04-29T23:44:16.620Z,2.70
2023-04-29T23:46:43.439Z,2.47
2023-04-29T23:49:10.546Z,1.17
2023-04-29T23:51:37.668Z,0.88
2023-04-29T23:54:04.511Z,2.13
2023-04-29T23:56:33.620Z,1.10
2023-04-29T23:59:00.684Z,0.98
